sensor_id;sensor_type;location;lat;lon;timestamp;P1;durP1;ratioP1;P2;durP2;ratioP2
47764;SDS011;33529;49.242;8.670;2023-02-26T00:02:26;2.17;;;1.20;;
47764;SDS011;33529;49.242;8.670;2023-02-26T00:04:53;2.70;;;1.50;;
47764;SDS011;33529;49.242;8.670;2023-02-26T00:07:20;2.97;;;1.50;;
47764;SDS011;33529;49.242;8.670;2023-02-26T00:09:46;2.60;;;1.75;;
47764;SDS011;33529;49.242;8.670;2023-02-26T00:12:13;5.57;;;1.60;;
47764;SDS011;33529;49.242;8.670;2023-02-26T00:14:40;2.35;;;1.38;;
47764;SDS011;33529;49.242;8.670;2023-02-26T00:17:19;2.58;;;1.48;;
47764;SDS011;33529;49.242;8.670;2023-02-26T00:19:48;3.15;;;1.77;;
47764;SDS011;33529;49.242;8.670;2023-02-26T00:22:15;3.33;;;1.92;;
47764;SDS011;33529;49.242;8.670;2023-02-26T00:24:42;2.97;;;1.48;;
47764;SDS011;33529;49.242;8.670;2023-02-26T00:27:10;3.30;;;1.80;;
47764;SDS011;33529;49.242;8.670;2023-02-26T00:29:37;2.88;;;1.83;;
47764;SDS011;33529;49.242;8.670;2023-02-26T00:32:04;2.80;;;1.50;;
47764;SDS011;33529;49.242;8.670;2023-02-26T00:34:32;4.60;;;1.40;;
47764;SDS011;33529;49.242;8.670;2023-02-26T00:40:14;3.00;;;1.92;;
47764;SDS011;33529;49.242;8.670;2023-02-26T00:42:47;2.65;;;1.70;;
47764;SDS011;33529;49.242;8.670;2023-02-26T00:45:15;3.42;;;1.65;;
47764;SDS011;33529;49.242;8.670;2023-02-26T00:47:54;3.72;;;1.92;;
47764;SDS011;33529;49.242;8.670;2023-02-26T00:50:49;3.13;;;1.65;;
47764;SDS011;33529;49.242;8.670;2023-02-26T00:53:30;2.28;;;1.60;;
47764;SDS011;33529;49.242;8.670;2023-02-26T00:56:06;3.10;;;1.65;;
47764;SDS011;33529;49.242;8.670;2023-02-26T00:58:33;2.78;;;1.70;;
47764;SDS011;33529;49.242;8.670;2023-02-26T01:01:00;3.65;;;2.13;;
47764;SDS011;33529;49.242;8.670;2023-02-26T01:03:27;2.83;;;1.35;;
47764;SDS011;33529;49.242;8.670;2023-02-26T01:05:56;3.05;;;1.90;;
47764;SDS011;33529;49.242;8.670;2023-02-26T01:08:26;1.98;;;1.45;;
47764;SDS011;33529;49.242;8.670;2023-02-26T01:10:59;2.88;;;1.55;;
47764;SDS011;33529;49.242;8.670;2023-02-26T01:13:26;2.47;;;1.50;;
47764;SDS011;33529;49.242;8.670;2023-02-26T01:15:54;2.83;;;1.58;;
47764;SDS011;33529;49.242;8.670;2023-02-26T01:18:31;2.47;;;1.48;;
47764;SDS011;33529;49.242;8.670;2023-02-26T01:21:04;3.75;;;1.60;;
47764;SDS011;33529;49.242;8.670;2023-02-26T01:23:40;2.65;;;1.60;;
47764;SDS011;33529;49.242;8.670;2023-02-26T01:28:45;3.20;;;1.88;;
47764;SDS011;33529;49.242;8.670;2023-02-26T01:31:56;3.25;;;1.58;;
47764;SDS011;33529;49.242;8.670;2023-02-26T01:34:13;3.42;;;2.00;;
47764;SDS011;33529;49.242;8.670;2023-02-26T01:36:50;4.03;;;2.03;;
47764;SDS011;33529;49.242;8.670;2023-02-26T01:42:20;3.55;;;1.58;;
47764;SDS011;33529;49.242;8.670;2023-02-26T01:44:55;2.30;;;1.40;;
47764;SDS011;33529;49.242;8.670;2023-02-26T01:50:26;3.70;;;1.92;;
47764;SDS011;33529;49.242;8.670;2023-02-26T01:56:12;3.40;;;1.67;;
47764;SDS011;33529;49.242;8.670;2023-02-26T01:58:45;4.10;;;1.90;;
47764;SDS011;33529;49.242;8.670;2023-02-26T02:01:14;3.85;;;1.83;;
47764;SDS011;33529;49.242;8.670;2023-02-26T02:03:41;4.32;;;1.98;;
47764;SDS011;33529;49.242;8.670;2023-02-26T02:06:09;2.60;;;1.40;;
47764;SDS011;33529;49.242;8.670;2023-02-26T02:08:47;4.30;;;1.73;;
47764;SDS011;33529;49.242;8.670;2023-02-26T02:11:14;3.92;;;1.60;;
47764;SDS011;33529;49.242;8.670;2023-02-26T02:21:47;3.47;;;1.45;;
47764;SDS011;33529;49.242;8.670;2023-02-26T02:30:23;2.50;;;1.45;;
47764;SDS011;33529;49.242;8.670;2023-02-26T02:33:05;2.55;;;1.42;;
47764;SDS011;33529;49.242;8.670;2023-02-26T02:35:46;3.40;;;1.63;;
47764;SDS011;33529;49.242;8.670;2023-02-26T02:38:25;3.58;;;1.30;;
47764;SDS011;33529;49.242;8.670;2023-02-26T02:41:09;2.30;;;1.20;;
47764;SDS011;33529;49.242;8.670;2023-02-26T02:43:40;2.53;;;1.30;;
47764;SDS011;33529;49.242;8.670;2023-02-26T02:46:10;3.95;;;1.65;;
47764;SDS011;33529;49.242;8.670;2023-02-26T02:49:00;2.72;;;1.42;;
47764;SDS011;33529;49.242;8.670;2023-02-26T02:51:45;2.65;;;1.30;;
47764;SDS011;33529;49.242;8.670;2023-02-26T02:54:24;2.92;;;1.60;;
47764;SDS011;33529;49.242;8.670;2023-02-26T02:57:21;2.90;;;1.50;;
47764;SDS011;33529;49.242;8.670;2023-02-26T02:59:57;3.72;;;1.67;;
47764;SDS011;33529;49.242;8.670;2023-02-26T03:02:38;3.70;;;2.03;;
47764;SDS011;33529;49.242;8.670;2023-02-26T03:05:09;2.97;;;1.83;;
47764;SDS011;33529;49.242;8.670;2023-02-26T03:07:38;2.83;;;1.92;;
47764;SDS011;33529;49.242;8.670;2023-02-26T03:10:08;4.28;;;1.77;;
47764;SDS011;33529;49.242;8.670;2023-02-26T03:12:36;4.35;;;2.42;;
47764;SDS011;33529;49.242;8.670;2023-02-26T03:15:03;2.85;;;1.90;;
47764;SDS011;33529;49.242;8.670;2023-02-26T03:20:26;4.13;;;2.50;;
47764;SDS011;33529;49.242;8.670;2023-02-26T03:23:03;6.40;;;2.47;;
47764;SDS011;33529;49.242;8.670;2023-02-26T03:28:35;4.53;;;1.80;;
47764;SDS011;33529;49.242;8.670;2023-02-26T03:33:53;3.05;;;1.52;;
47764;SDS011;33529;49.242;8.670;2023-02-26T03:36:24;2.83;;;1.70;;
47764;SDS011;33529;49.242;8.670;2023-02-26T03:39:34;4.40;;;2.30;;
47764;SDS011;33529;49.242;8.670;2023-02-26T03:42:22;3.65;;;1.75;;
47764;SDS011;33529;49.242;8.670;2023-02-26T03:47:34;2.97;;;1.55;;
47764;SDS011;33529;49.242;8.670;2023-02-26T03:50:07;4.00;;;2.13;;
47764;SDS011;33529;49.242;8.670;2023-02-26T03:52:47;2.97;;;1.92;;
47764;SDS011;33529;49.242;8.670;2023-02-26T03:58:52;3.17;;;1.65;;
47764;SDS011;33529;49.242;8.670;2023-02-26T04:02:01;2.88;;;1.90;;
47764;SDS011;33529;49.242;8.670;2023-02-26T04:04:34;3.00;;;1.67;;
47764;SDS011;33529;49.242;8.670;2023-02-26T04:07:08;4.38;;;2.53;;
47764;SDS011;33529;49.242;8.670;2023-02-26T04:09:39;3.67;;;1.65;;
47764;SDS011;33529;49.242;8.670;2023-02-26T04:12:07;3.60;;;1.85;;
47764;SDS011;33529;49.242;8.670;2023-02-26T04:14:37;3.65;;;1.95;;
47764;SDS011;33529;49.242;8.670;2023-02-26T04:17:04;2.85;;;1.95;;
47764;SDS011;33529;49.242;8.670;2023-02-26T04:19:32;4.68;;;2.10;;
47764;SDS011;33529;49.242;8.670;2023-02-26T04:21:59;3.22;;;1.77;;
47764;SDS011;33529;49.242;8.670;2023-02-26T04:24:25;2.85;;;1.70;;
47764;SDS011;33529;49.242;8.670;2023-02-26T04:26:56;4.13;;;2.40;;
47764;SDS011;33529;49.242;8.670;2023-02-26T04:29:23;3.25;;;1.63;;
47764;SDS011;33529;49.242;8.670;2023-02-26T04:31:50;3.13;;;1.65;;
47764;SDS011;33529;49.242;8.670;2023-02-26T04:34:17;3.40;;;2.00;;
47764;SDS011;33529;49.242;8.670;2023-02-26T04:36:45;3.58;;;1.73;;
47764;SDS011;33529;49.242;8.670;2023-02-26T04:39:11;3.42;;;2.08;;
47764;SDS011;33529;49.242;8.670;2023-02-26T04:41:39;3.05;;;1.75;;
47764;SDS011;33529;49.242;8.670;2023-02-26T04:44:06;3.88;;;2.03;;
47764;SDS011;33529;49.242;8.670;2023-02-26T04:46:36;4.85;;;2.10;;
47764;SDS011;33529;49.242;8.670;2023-02-26T04:49:03;3.28;;;1.92;;
47764;SDS011;33529;49.242;8.670;2023-02-26T04:51:30;2.97;;;1.80;;
47764;SDS011;33529;49.242;8.670;2023-02-26T04:53:57;3.45;;;1.80;;
47764;SDS011;33529;49.242;8.670;2023-02-26T04:56:24;3.03;;;1.70;;
47764;SDS011;33529;49.242;8.670;2023-02-26T04:58:51;4.47;;;2.28;;
47764;SDS011;33529;49.242;8.670;2023-02-26T05:01:23;6.18;;;2.50;;
47764;SDS011;33529;49.242;8.670;2023-02-26T05:03:50;5.07;;;2.50;;
47764;SDS011;33529;49.242;8.670;2023-02-26T05:06:18;3.60;;;2.20;;
47764;SDS011;33529;49.242;8.670;2023-02-26T05:08:45;3.30;;;1.80;;
47764;SDS011;33529;49.242;8.670;2023-02-26T05:11:12;3.63;;;2.17;;
47764;SDS011;33529;49.242;8.670;2023-02-26T05:13:39;3.78;;;2.00;;
47764;SDS011;33529;49.242;8.670;2023-02-26T05:16:06;3.42;;;1.95;;
47764;SDS011;33529;49.242;8.670;2023-02-26T05:18:34;5.20;;;1.92;;
47764;SDS011;33529;49.242;8.670;2023-02-26T05:21:02;3.20;;;2.15;;
47764;SDS011;33529;49.242;8.670;2023-02-26T05:23:30;4.88;;;1.88;;
47764;SDS011;33529;49.242;8.670;2023-02-26T05:25:57;4.07;;;1.75;;
47764;SDS011;33529;49.242;8.670;2023-02-26T05:28:24;3.40;;;2.03;;
47764;SDS011;33529;49.242;8.670;2023-02-26T05:30:51;4.35;;;1.77;;
47764;SDS011;33529;49.242;8.670;2023-02-26T05:33:19;4.30;;;1.90;;
47764;SDS011;33529;49.242;8.670;2023-02-26T05:35:46;2.90;;;1.80;;
47764;SDS011;33529;49.242;8.670;2023-02-26T05:38:14;3.15;;;1.80;;
47764;SDS011;33529;49.242;8.670;2023-02-26T05:40:40;3.40;;;1.80;;
47764;SDS011;33529;49.242;8.670;2023-02-26T05:43:07;4.07;;;2.22;;
47764;SDS011;33529;49.242;8.670;2023-02-26T05:45:35;2.88;;;1.75;;
47764;SDS011;33529;49.242;8.670;2023-02-26T05:48:02;2.97;;;2.08;;
47764;SDS011;33529;49.242;8.670;2023-02-26T05:50:29;4.63;;;2.30;;
47764;SDS011;33529;49.242;8.670;2023-02-26T05:52:56;3.83;;;2.00;;
47764;SDS011;33529;49.242;8.670;2023-02-26T05:55:23;2.97;;;2.08;;
47764;SDS011;33529;49.242;8.670;2023-02-26T05:57:50;4.00;;;2.03;;
47764;SDS011;33529;49.242;8.670;2023-02-26T06:00:16;4.13;;;2.17;;
47764;SDS011;33529;49.242;8.670;2023-02-26T06:02:44;3.83;;;2.10;;
47764;SDS011;33529;49.242;8.670;2023-02-26T06:05:11;3.00;;;1.88;;
47764;SDS011;33529;49.242;8.670;2023-02-26T06:07:38;3.60;;;2.25;;
47764;SDS011;33529;49.242;8.670;2023-02-26T06:10:05;3.28;;;1.83;;
47764;SDS011;33529;49.242;8.670;2023-02-26T06:12:34;3.58;;;1.85;;
47764;SDS011;33529;49.242;8.670;2023-02-26T06:15:01;4.15;;;2.45;;
47764;SDS011;33529;49.242;8.670;2023-02-26T06:17:29;3.42;;;1.95;;
47764;SDS011;33529;49.242;8.670;2023-02-26T06:19:56;3.45;;;1.83;;
47764;SDS011;33529;49.242;8.670;2023-02-26T06:22:23;6.50;;;2.40;;
47764;SDS011;33529;49.242;8.670;2023-02-26T06:24:50;3.47;;;2.20;;
47764;SDS011;33529;49.242;8.670;2023-02-26T06:27:17;3.17;;;1.77;;
47764;SDS011;33529;49.242;8.670;2023-02-26T06:29:44;2.85;;;1.75;;
47764;SDS011;33529;49.242;8.670;2023-02-26T06:32:10;4.32;;;1.70;;
47764;SDS011;33529;49.242;8.670;2023-02-26T06:34:37;4.15;;;1.73;;
47764;SDS011;33529;49.242;8.670;2023-02-26T06:37:04;2.80;;;1.70;;
47764;SDS011;33529;49.242;8.670;2023-02-26T06:39:31;4.25;;;2.10;;
47764;SDS011;33529;49.242;8.670;2023-02-26T06:41:58;3.78;;;2.40;;
47764;SDS011;33529;49.242;8.670;2023-02-26T06:44:25;4.53;;;2.63;;
47764;SDS011;33529;49.242;8.670;2023-02-26T06:46:51;6.75;;;3.92;;
47764;SDS011;33529;49.242;8.670;2023-02-26T06:49:18;6.50;;;4.93;;
47764;SDS011;33529;49.242;8.670;2023-02-26T06:51:45;5.43;;;4.20;;
47764;SDS011;33529;49.242;8.670;2023-02-26T06:54:12;8.77;;;4.72;;
47764;SDS011;33529;49.242;8.670;2023-02-26T06:56:38;6.22;;;4.20;;
47764;SDS011;33529;49.242;8.670;2023-02-26T06:59:05;5.20;;;2.80;;
47764;SDS011;33529;49.242;8.670;2023-02-26T07:01:32;4.22;;;2.47;;
47764;SDS011;33529;49.242;8.670;2023-02-26T07:03:59;3.03;;;2.13;;
47764;SDS011;33529;49.242;8.670;2023-02-26T07:06:25;4.00;;;1.85;;
47764;SDS011;33529;49.242;8.670;2023-02-26T07:08:53;3.35;;;2.00;;
47764;SDS011;33529;49.242;8.670;2023-02-26T07:11:20;3.42;;;1.98;;
47764;SDS011;33529;49.242;8.670;2023-02-26T07:13:47;3.58;;;1.63;;
47764;SDS011;33529;49.242;8.670;2023-02-26T07:16:14;3.58;;;1.70;;
47764;SDS011;33529;49.242;8.670;2023-02-26T07:18:41;3.30;;;1.45;;
47764;SDS011;33529;49.242;8.670;2023-02-26T07:21:08;2.97;;;1.40;;
47764;SDS011;33529;49.242;8.670;2023-02-26T07:23:35;2.95;;;1.40;;
47764;SDS011;33529;49.242;8.670;2023-02-26T07:26:01;2.80;;;1.60;;
47764;SDS011;33529;49.242;8.670;2023-02-26T07:28:29;2.58;;;1.48;;
47764;SDS011;33529;49.242;8.670;2023-02-26T07:30:56;3.67;;;1.33;;
47764;SDS011;33529;49.242;8.670;2023-02-26T07:33:23;3.35;;;2.10;;
47764;SDS011;33529;49.242;8.670;2023-02-26T07:35:51;3.50;;;1.60;;
47764;SDS011;33529;49.242;8.670;2023-02-26T07:38:18;1.85;;;1.10;;
47764;SDS011;33529;49.242;8.670;2023-02-26T07:40:45;3.47;;;1.38;;
47764;SDS011;33529;49.242;8.670;2023-02-26T07:43:12;4.22;;;2.35;;
47764;SDS011;33529;49.242;8.670;2023-02-26T07:45:39;2.58;;;1.52;;
47764;SDS011;33529;49.242;8.670;2023-02-26T07:48:06;2.17;;;1.17;;
47764;SDS011;33529;49.242;8.670;2023-02-26T07:50:33;4.18;;;1.83;;
47764;SDS011;33529;49.242;8.670;2023-02-26T07:52:59;3.63;;;1.88;;
47764;SDS011;33529;49.242;8.670;2023-02-26T07:55:27;6.15;;;1.63;;
47764;SDS011;33529;49.242;8.670;2023-02-26T07:57:53;3.70;;;1.33;;
47764;SDS011;33529;49.242;8.670;2023-02-26T08:00:20;2.83;;;1.23;;
47764;SDS011;33529;49.242;8.670;2023-02-26T08:02:47;2.05;;;1.20;;
47764;SDS011;33529;49.242;8.670;2023-02-26T08:05:14;3.63;;;1.50;;
47764;SDS011;33529;49.242;8.670;2023-02-26T08:07:41;2.58;;;1.10;;
47764;SDS011;33529;49.242;8.670;2023-02-26T08:10:08;4.40;;;1.50;;
47764;SDS011;33529;49.242;8.670;2023-02-26T08:12:35;4.57;;;1.70;;
47764;SDS011;33529;49.242;8.670;2023-02-26T08:15:03;2.10;;;1.13;;
47764;SDS011;33529;49.242;8.670;2023-02-26T08:17:30;3.80;;;1.40;;
47764;SDS011;33529;49.242;8.670;2023-02-26T08:19:57;1.98;;;1.08;;
47764;SDS011;33529;49.242;8.670;2023-02-26T08:22:23;4.68;;;1.92;;
47764;SDS011;33529;49.242;8.670;2023-02-26T08:24:50;2.10;;;1.08;;
47764;SDS011;33529;49.242;8.670;2023-02-26T08:27:17;2.28;;;1.20;;
47764;SDS011;33529;49.242;8.670;2023-02-26T08:29:44;2.72;;;1.40;;
47764;SDS011;33529;49.242;8.670;2023-02-26T08:32:11;4.43;;;2.03;;
47764;SDS011;33529;49.242;8.670;2023-02-26T08:34:41;4.45;;;1.45;;
47764;SDS011;33529;49.242;8.670;2023-02-26T08:37:08;2.42;;;1.20;;
47764;SDS011;33529;49.242;8.670;2023-02-26T08:39:37;4.40;;;1.40;;
47764;SDS011;33529;49.242;8.670;2023-02-26T08:42:04;2.42;;;1.20;;
47764;SDS011;33529;49.242;8.670;2023-02-26T08:44:32;3.08;;;1.35;;
47764;SDS011;33529;49.242;8.670;2023-02-26T08:46:59;2.50;;;1.20;;
47764;SDS011;33529;49.242;8.670;2023-02-26T08:49:26;2.22;;;1.10;;
47764;SDS011;33529;49.242;8.670;2023-02-26T08:51:52;2.80;;;1.23;;
47764;SDS011;33529;49.242;8.670;2023-02-26T08:54:19;3.30;;;1.25;;
47764;SDS011;33529;49.242;8.670;2023-02-26T08:56:46;3.97;;;2.08;;
47764;SDS011;33529;49.242;8.670;2023-02-26T08:59:13;1.38;;;0.85;;
47764;SDS011;33529;49.242;8.670;2023-02-26T09:01:40;3.40;;;1.15;;
47764;SDS011;33529;49.242;8.670;2023-02-26T09:04:07;2.92;;;1.30;;
47764;SDS011;33529;49.242;8.670;2023-02-26T09:06:34;2.60;;;1.08;;
47764;SDS011;33529;49.242;8.670;2023-02-26T09:09:01;1.58;;;1.20;;
47764;SDS011;33529;49.242;8.670;2023-02-26T09:11:29;6.85;;;2.05;;
47764;SDS011;33529;49.242;8.670;2023-02-26T09:13:57;3.35;;;1.27;;
47764;SDS011;33529;49.242;8.670;2023-02-26T09:16:24;1.80;;;0.95;;
47764;SDS011;33529;49.242;8.670;2023-02-26T09:18:54;1.95;;;1.00;;
47764;SDS011;33529;49.242;8.670;2023-02-26T09:21:22;0.98;;;0.70;;
47764;SDS011;33529;49.242;8.670;2023-02-26T09:23:49;0.90;;;0.75;;
47764;SDS011;33529;49.242;8.670;2023-02-26T09:26:15;2.80;;;1.15;;
47764;SDS011;33529;49.242;8.670;2023-02-26T09:28:42;1.15;;;0.73;;
47764;SDS011;33529;49.242;8.670;2023-02-26T09:31:09;2.58;;;1.17;;
47764;SDS011;33529;49.242;8.670;2023-02-26T09:33:36;1.40;;;0.80;;
47764;SDS011;33529;49.242;8.670;2023-02-26T09:36:03;2.03;;;1.00;;
47764;SDS011;33529;49.242;8.670;2023-02-26T09:38:30;2.20;;;0.88;;
47764;SDS011;33529;49.242;8.670;2023-02-26T09:47:01;4.13;;;1.17;;
47764;SDS011;33529;49.242;8.670;2023-02-26T09:54:52;2.10;;;1.27;;
47764;SDS011;33529;49.242;8.670;2023-02-26T09:57:34;2.28;;;0.80;;
47764;SDS011;33529;49.242;8.670;2023-02-26T10:00:15;3.88;;;1.23;;
47764;SDS011;33529;49.242;8.670;2023-02-26T10:08:17;1.20;;;0.70;;
47764;SDS011;33529;49.242;8.670;2023-02-26T10:10:49;1.30;;;0.80;;
47764;SDS011;33529;49.242;8.670;2023-02-26T10:13:42;2.05;;;1.02;;
47764;SDS011;33529;49.242;8.670;2023-02-26T10:16:25;2.25;;;1.00;;
47764;SDS011;33529;49.242;8.670;2023-02-26T10:19:03;1.55;;;0.90;;
47764;SDS011;33529;49.242;8.670;2023-02-26T10:24:25;1.55;;;0.90;;
47764;SDS011;33529;49.242;8.670;2023-02-26T10:27:01;1.25;;;0.65;;
47764;SDS011;33529;49.242;8.670;2023-02-26T10:32:37;1.85;;;1.00;;
47764;SDS011;33529;49.242;8.670;2023-02-26T10:35:13;2.25;;;1.33;;
47764;SDS011;33529;49.242;8.670;2023-02-26T10:37:52;1.77;;;0.90;;
47764;SDS011;33529;49.242;8.670;2023-02-26T10:43:18;2.53;;;1.50;;
47764;SDS011;33529;49.242;8.670;2023-02-26T10:48:46;1.13;;;0.70;;
47764;SDS011;33529;49.242;8.670;2023-02-26T10:51:17;2.30;;;1.00;;
47764;SDS011;33529;49.242;8.670;2023-02-26T10:53:52;2.03;;;0.70;;
47764;SDS011;33529;49.242;8.670;2023-02-26T10:56:24;1.52;;;0.80;;
47764;SDS011;33529;49.242;8.670;2023-02-26T10:58:54;1.00;;;0.50;;
47764;SDS011;33529;49.242;8.670;2023-02-26T11:01:22;1.83;;;1.02;;
47764;SDS011;33529;49.242;8.670;2023-02-26T11:03:56;2.28;;;1.20;;
47764;SDS011;33529;49.242;8.670;2023-02-26T11:06:30;2.15;;;1.05;;
47764;SDS011;33529;49.242;8.670;2023-02-26T11:09:12;2.60;;;1.20;;
47764;SDS011;33529;49.242;8.670;2023-02-26T11:11:50;1.40;;;0.75;;
47764;SDS011;33529;49.242;8.670;2023-02-26T11:14:31;1.33;;;0.75;;
47764;SDS011;33529;49.242;8.670;2023-02-26T11:17:00;1.00;;;0.65;;
47764;SDS011;33529;49.242;8.670;2023-02-26T11:19:34;1.42;;;0.80;;
47764;SDS011;33529;49.242;8.670;2023-02-26T11:22:04;0.90;;;0.63;;
47764;SDS011;33529;49.242;8.670;2023-02-26T11:24:36;2.93;;;1.00;;
47764;SDS011;33529;49.242;8.670;2023-02-26T11:27:14;2.00;;;1.05;;
47764;SDS011;33529;49.242;8.670;2023-02-26T11:29:47;2.10;;;1.00;;
47764;SDS011;33529;49.242;8.670;2023-02-26T11:32:21;1.92;;;1.23;;
47764;SDS011;33529;49.242;8.670;2023-02-26T11:34:50;1.90;;;0.68;;
47764;SDS011;33529;49.242;8.670;2023-02-26T11:37:18;0.95;;;0.57;;
47764;SDS011;33529;49.242;8.670;2023-02-26T11:39:49;0.93;;;0.50;;
47764;SDS011;33529;49.242;8.670;2023-02-26T11:42:23;1.15;;;0.63;;
47764;SDS011;33529;49.242;8.670;2023-02-26T11:44:51;1.92;;;0.90;;
47764;SDS011;33529;49.242;8.670;2023-02-26T11:47:20;1.13;;;0.60;;
47764;SDS011;33529;49.242;8.670;2023-02-26T11:49:52;1.52;;;0.90;;
47764;SDS011;33529;49.242;8.670;2023-02-26T11:57:44;1.77;;;0.73;;
47764;SDS011;33529;49.242;8.670;2023-02-26T12:00:17;2.20;;;0.70;;
47764;SDS011;33529;49.242;8.670;2023-02-26T12:02:46;3.60;;;1.60;;
47764;SDS011;33529;49.242;8.670;2023-02-26T12:05:14;1.52;;;0.77;;
47764;SDS011;33529;49.242;8.670;2023-02-26T12:07:43;2.03;;;0.90;;
47764;SDS011;33529;49.242;8.670;2023-02-26T12:10:16;0.50;;;0.40;;
47764;SDS011;33529;49.242;8.670;2023-02-26T12:13:10;0.60;;;0.50;;
47764;SDS011;33529;49.242;8.670;2023-02-26T12:15:55;1.50;;;0.75;;
47764;SDS011;33529;49.242;8.670;2023-02-26T12:18:53;1.17;;;0.60;;
47764;SDS011;33529;49.242;8.670;2023-02-26T12:21:29;1.88;;;0.90;;
47764;SDS011;33529;49.242;8.670;2023-02-26T12:26:52;0.50;;;0.40;;
47764;SDS011;33529;49.242;8.670;2023-02-26T12:29:34;1.10;;;0.57;;
47764;SDS011;33529;49.242;8.670;2023-02-26T12:32:55;1.52;;;0.77;;
47764;SDS011;33529;49.242;8.670;2023-02-26T12:35:04;1.15;;;0.70;;
47764;SDS011;33529;49.242;8.670;2023-02-26T12:40:14;1.95;;;0.65;;
47764;SDS011;33529;49.242;8.670;2023-02-26T12:43:01;0.30;;;0.30;;
47764;SDS011;33529;49.242;8.670;2023-02-26T12:48:25;1.23;;;0.60;;
47764;SDS011;33529;49.242;8.670;2023-02-26T12:51:25;0.60;;;0.50;;
47764;SDS011;33529;49.242;8.670;2023-02-26T12:54:28;0.85;;;0.40;;
47764;SDS011;33529;49.242;8.670;2023-02-26T12:57:10;0.57;;;0.47;;
47764;SDS011;33529;49.242;8.670;2023-02-26T12:59:59;0.95;;;0.47;;
47764;SDS011;33529;49.242;8.670;2023-02-26T13:08:17;1.30;;;0.60;;
47764;SDS011;33529;49.242;8.670;2023-02-26T13:16:40;1.77;;;0.80;;
47764;SDS011;33529;49.242;8.670;2023-02-26T13:22:24;1.70;;;0.90;;
47764;SDS011;33529;49.242;8.670;2023-02-26T13:24:55;1.33;;;0.60;;
47764;SDS011;33529;49.242;8.670;2023-02-26T13:27:25;1.02;;;0.52;;
47764;SDS011;33529;49.242;8.670;2023-02-26T13:30:13;1.45;;;0.98;;
47764;SDS011;33529;49.242;8.670;2023-02-26T13:32:52;1.15;;;0.50;;
47764;SDS011;33529;49.242;8.670;2023-02-26T13:35:26;1.35;;;0.98;;
47764;SDS011;33529;49.242;8.670;2023-02-26T13:37:55;1.15;;;0.75;;
47764;SDS011;33529;49.242;8.670;2023-02-26T13:43:27;1.23;;;0.60;;
47764;SDS011;33529;49.242;8.670;2023-02-26T13:49:08;0.40;;;0.40;;
47764;SDS011;33529;49.242;8.670;2023-02-26T13:51:49;1.70;;;0.70;;
47764;SDS011;33529;49.242;8.670;2023-02-26T14:02:50;1.75;;;0.90;;
47764;SDS011;33529;49.242;8.670;2023-02-26T14:05:31;1.80;;;0.60;;
47764;SDS011;33529;49.242;8.670;2023-02-26T14:10:28;0.50;;;0.50;;
47764;SDS011;33529;49.242;8.670;2023-02-26T14:13:16;1.80;;;0.65;;
47764;SDS011;33529;49.242;8.670;2023-02-26T14:24:04;0.63;;;0.43;;
47764;SDS011;33529;49.242;8.670;2023-02-26T14:26:47;0.75;;;0.38;;
47764;SDS011;33529;49.242;8.670;2023-02-26T14:29:40;0.80;;;0.50;;
47764;SDS011;33529;49.242;8.670;2023-02-26T14:34:58;1.13;;;0.43;;
47764;SDS011;33529;49.242;8.670;2023-02-26T14:37:40;1.02;;;0.50;;
47764;SDS011;33529;49.242;8.670;2023-02-26T14:40:18;3.20;;;0.70;;
47764;SDS011;33529;49.242;8.670;2023-02-26T14:42:49;1.13;;;0.60;;
47764;SDS011;33529;49.242;8.670;2023-02-26T14:47:43;0.95;;;0.47;;
47764;SDS011;33529;49.242;8.670;2023-02-26T14:50:15;1.10;;;0.60;;
47764;SDS011;33529;49.242;8.670;2023-02-26T14:55:41;0.55;;;0.45;;
47764;SDS011;33529;49.242;8.670;2023-02-26T14:58:37;1.13;;;0.57;;
47764;SDS011;33529;49.242;8.670;2023-02-26T15:04:13;1.17;;;0.55;;
47764;SDS011;33529;49.242;8.670;2023-02-26T15:15:56;1.48;;;0.60;;
47764;SDS011;33529;49.242;8.670;2023-02-26T15:24:23;0.95;;;0.60;;
47764;SDS011;33529;49.242;8.670;2023-02-26T15:26:51;1.30;;;0.50;;
47764;SDS011;33529;49.242;8.670;2023-02-26T15:29:25;2.13;;;0.80;;
47764;SDS011;33529;49.242;8.670;2023-02-26T15:31:59;2.70;;;0.60;;
47764;SDS011;33529;49.242;8.670;2023-02-26T15:34:31;1.88;;;0.68;;
47764;SDS011;33529;49.242;8.670;2023-02-26T15:36:59;1.13;;;0.55;;
47764;SDS011;33529;49.242;8.670;2023-02-26T15:39:26;2.13;;;0.77;;
47764;SDS011;33529;49.242;8.670;2023-02-26T15:41:54;1.85;;;0.63;;
47764;SDS011;33529;49.242;8.670;2023-02-26T15:44:23;2.08;;;0.73;;
47764;SDS011;33529;49.242;8.670;2023-02-26T15:46:55;1.30;;;0.70;;
47764;SDS011;33529;49.242;8.670;2023-02-26T15:49:28;1.23;;;0.80;;
47764;SDS011;33529;49.242;8.670;2023-02-26T15:52:01;1.80;;;0.70;;
47764;SDS011;33529;49.242;8.670;2023-02-26T15:55:13;0.52;;;0.52;;
47764;SDS011;33529;49.242;8.670;2023-02-26T15:57:23;1.27;;;0.90;;
47764;SDS011;33529;49.242;8.670;2023-02-26T15:59:53;0.73;;;0.63;;
47764;SDS011;33529;49.242;8.670;2023-02-26T16:02:37;2.45;;;1.15;;
47764;SDS011;33529;49.242;8.670;2023-02-26T16:05:06;1.73;;;1.25;;
47764;SDS011;33529;49.242;8.670;2023-02-26T16:07:33;1.10;;;0.50;;
47764;SDS011;33529;49.242;8.670;2023-02-26T16:10:05;0.70;;;0.50;;
47764;SDS011;33529;49.242;8.670;2023-02-26T16:12:40;2.25;;;1.00;;
47764;SDS011;33529;49.242;8.670;2023-02-26T16:15:14;1.58;;;1.00;;
47764;SDS011;33529;49.242;8.670;2023-02-26T16:17:44;1.80;;;0.65;;
47764;SDS011;33529;49.242;8.670;2023-02-26T16:20:19;0.70;;;0.60;;
47764;SDS011;33529;49.242;8.670;2023-02-26T16:22:55;2.17;;;0.88;;
47764;SDS011;33529;49.242;8.670;2023-02-26T16:25:34;2.85;;;1.33;;
47764;SDS011;33529;49.242;8.670;2023-02-26T16:28:05;1.83;;;0.95;;
47764;SDS011;33529;49.242;8.670;2023-02-26T16:30:41;0.80;;;0.50;;
47764;SDS011;33529;49.242;8.670;2023-02-26T16:33:13;2.67;;;1.17;;
47764;SDS011;33529;49.242;8.670;2023-02-26T16:35:45;1.90;;;0.93;;
47764;SDS011;33529;49.242;8.670;2023-02-26T16:38:19;2.72;;;1.50;;
47764;SDS011;33529;49.242;8.670;2023-02-26T16:40:53;1.40;;;0.80;;
47764;SDS011;33529;49.242;8.670;2023-02-26T16:46:13;1.58;;;0.65;;
47764;SDS011;33529;49.242;8.670;2023-02-26T16:48:57;1.42;;;0.75;;
47764;SDS011;33529;49.242;8.670;2023-02-26T16:51:37;2.15;;;0.90;;
47764;SDS011;33529;49.242;8.670;2023-02-26T16:54:28;4.53;;;1.10;;
47764;SDS011;33529;49.242;8.670;2023-02-26T16:57:16;3.95;;;1.60;;
47764;SDS011;33529;49.242;8.670;2023-02-26T16:59:48;1.90;;;1.00;;
47764;SDS011;33529;49.242;8.670;2023-02-26T17:02:20;2.88;;;1.05;;
47764;SDS011;33529;49.242;8.670;2023-02-26T17:04:51;3.15;;;1.25;;
47764;SDS011;33529;49.242;8.670;2023-02-26T17:07:29;2.45;;;1.00;;
47764;SDS011;33529;49.242;8.670;2023-02-26T17:13:46;1.02;;;0.70;;
47764;SDS011;33529;49.242;8.670;2023-02-26T17:16:44;1.15;;;0.70;;
47764;SDS011;33529;49.242;8.670;2023-02-26T17:19:12;4.20;;;1.10;;
47764;SDS011;33529;49.242;8.670;2023-02-26T17:21:44;1.45;;;0.90;;
47764;SDS011;33529;49.242;8.670;2023-02-26T17:24:14;1.33;;;0.70;;
47764;SDS011;33529;49.242;8.670;2023-02-26T17:26:43;1.90;;;1.00;;
47764;SDS011;33529;49.242;8.670;2023-02-26T17:29:16;1.40;;;0.70;;
47764;SDS011;33529;49.242;8.670;2023-02-26T17:31:45;2.40;;;1.30;;
47764;SDS011;33529;49.242;8.670;2023-02-26T17:34:12;1.38;;;0.70;;
47764;SDS011;33529;49.242;8.670;2023-02-26T17:36:39;2.25;;;1.00;;
47764;SDS011;33529;49.242;8.670;2023-02-26T17:39:08;1.98;;;0.85;;
47764;SDS011;33529;49.242;8.670;2023-02-26T17:41:37;1.42;;;1.00;;
47764;SDS011;33529;49.242;8.670;2023-02-26T17:44:08;1.73;;;0.50;;
47764;SDS011;33529;49.242;8.670;2023-02-26T17:46:34;2.30;;;0.95;;
47764;SDS011;33529;49.242;8.670;2023-02-26T17:49:01;1.05;;;0.50;;
47764;SDS011;33529;49.242;8.670;2023-02-26T17:51:29;1.65;;;0.65;;
47764;SDS011;33529;49.242;8.670;2023-02-26T17:53:55;2.10;;;0.70;;
47764;SDS011;33529;49.242;8.670;2023-02-26T17:56:23;3.05;;;0.95;;